createdAt,value
2019-05-12T00:01:04.117Z,102429.34
2019-05-12T00:03:51.793Z,102429.31
2019-05-12T00:06:39.626Z,102425.35
2019-05-12T00:09:28.303Z,102435.89
2019-05-12T00:12:15.478Z,102428.41
2019-05-12T00:15:03.268Z,102438.06
2019-05-12T00:17:51.418Z,102436.27
2019-05-12T00:20:38.981Z,102441.93
2019-05-12T00:23:28.730Z,102451.58
2019-05-12T00:26:14.377Z,102448.07
2019-05-12T00:29:02.472Z,102458.14
2019-05-12T00:31:50.277Z,102465.14
2019-05-12T00:34:38.535Z,102472.14
2019-05-12T00:37:28.750Z,102475.20
2019-05-12T00:40:14.575Z,102473.87
2019-05-12T00:43:02.033Z,102485.29
2019-05-12T00:45:49.961Z,102483.97
2019-05-12T00:48:37.697Z,102496.66
2019-05-12T00:51:25.983Z,102496.22
2019-05-12T00:54:13.965Z,102498.38
2019-05-12T00:57:02.017Z,102500.98
2019-05-12T00:59:49.767Z,102507.56
2019-05-12T01:02:38.046Z,102512.84
2019-05-12T01:05:25.335Z,102517.59
2019-05-12T01:08:12.949Z,102519.36
2019-05-12T01:11:01.013Z,102517.61
2019-05-12T01:13:48.945Z,102527.67
2019-05-12T01:16:38.541Z,102532.45
2019-05-12T01:19:24.606Z,102531.12
2019-05-12T01:22:12.499Z,102542.53
2019-05-12T01:25:00.161Z,102543.83
2019-05-12T01:27:48.410Z,102546.43
2019-05-12T01:30:35.868Z,102513.75
2019-05-12T01:33:23.634Z,102557.73
2019-05-12T01:36:11.023Z,102544.13
2019-05-12T01:39:01.935Z,102561.64
2019-05-12T01:41:48.129Z,102563.80
2019-05-12T01:44:38.206Z,102575.99
2019-05-12T01:47:24.899Z,102586.10
2019-05-12T01:50:12.718Z,102586.86
2019-05-12T01:53:00.527Z,102601.34
2019-05-12T01:55:48.679Z,102614.88
2019-05-12T01:58:38.227Z,102616.97
2019-05-12T02:01:24.215Z,102622.64
2019-05-12T02:04:12.553Z,102632.77
2019-05-12T02:07:00.714Z,102628.34
2019-05-12T02:09:49.184Z,102636.25
2019-05-12T02:12:38.354Z,102644.03
2019-05-12T02:15:27.667Z,102649.30
2019-05-12T02:18:12.656Z,102650.61
2019-05-12T02:21:00.577Z,102650.98
2019-05-12T02:23:48.335Z,102656.23
2019-05-12T02:26:38.319Z,102659.77
2019-05-12T02:29:24.115Z,102660.58
2019-05-12T02:32:12.207Z,102665.43
2019-05-12T02:35:00.379Z,102665.80
2019-05-12T02:37:48.352Z,102668.91
2019-05-12T02:40:35.971Z,102679.78
2019-05-12T02:43:24.611Z,102683.72
2019-05-12T02:46:15.278Z,102676.31
2019-05-12T02:49:00.055Z,102681.49
2019-05-12T02:51:48.067Z,102684.05
2019-05-12T02:54:50.551Z,102690.58
2019-05-12T02:57:25.467Z,102698.89
2019-05-12T03:00:11.186Z,102701.13
2019-05-12T03:02:58.876Z,102705.42
2019-05-12T03:05:47.230Z,102703.23
2019-05-12T03:08:35.513Z,102712.43
2019-05-12T03:11:24.824Z,102711.04
2019-05-12T03:14:15.351Z,102713.16
2019-05-12T03:17:00.063Z,102713.19
2019-05-12T03:19:47.912Z,102719.20
2019-05-12T03:22:36.256Z,102720.47
2019-05-12T03:25:28.947Z,102718.68
2019-05-12T03:28:11.609Z,102728.70
2019-05-12T03:30:59.406Z,102730.45
2019-05-12T03:33:52.956Z,102734.39
2019-05-12T03:36:41.694Z,102737.86
2019-05-12T03:39:25.098Z,102737.41
2019-05-12T03:42:14.374Z,102739.21
2019-05-12T03:44:58.709Z,102740.95
2019-05-12T03:47:46.891Z,102751.38
2019-05-12T03:50:36.205Z,102752.24
2019-05-12T03:53:24.636Z,102752.59
2019-05-12T03:56:14.844Z,102754.78
2019-05-12T03:58:59.560Z,102762.66
2019-05-12T04:01:47.187Z,102773.20
2019-05-12T04:04:35.010Z,102770.58
2019-05-12T04:07:24.340Z,102775.39
2019-05-12T04:10:11.179Z,102782.39
2019-05-12T04:12:58.772Z,102788.95
2019-05-12T04:15:46.490Z,102794.61
2019-05-12T04:18:34.862Z,102797.75
2019-05-12T04:21:24.315Z,102804.27
2019-05-12T04:24:10.054Z,102809.61
2019-05-12T04:26:57.456Z,102820.11
2019-05-12T04:29:45.684Z,102812.23
2019-05-12T04:32:35.830Z,102807.34
2019-05-12T04:35:24.905Z,102814.42
2019-05-12T04:38:09.782Z,102821.87
2019-05-12T04:40:57.585Z,102828.08
2019-05-12T04:43:45.217Z,102834.73
2019-05-12T04:46:34.589Z,102833.95
2019-05-12T04:49:20.563Z,102842.36
2019-05-12T04:52:08.415Z,102840.66
2019-05-12T04:54:56.160Z,102842.09
2019-05-12T04:57:45.004Z,102852.20
2019-05-12T05:00:34.481Z,102856.33
2019-05-12T05:03:19.481Z,102856.80
2019-05-12T05:06:07.850Z,102859.08
2019-05-12T05:08:56.022Z,102866.61
2019-05-12T05:11:45.050Z,102874.30
2019-05-12T05:14:34.069Z,102880.98
2019-05-12T05:17:20.012Z,102883.38
2019-05-12T05:20:08.063Z,102887.06
2019-05-12T05:22:55.525Z,102891.55
2019-05-12T05:25:43.589Z,102901.48
2019-05-12T05:28:33.977Z,102903.86
2019-05-12T05:31:20.157Z,102913.45
2019-05-12T05:34:08.337Z,102919.02
2019-05-12T05:37:01.260Z,102911.72
2019-05-12T05:39:49.473Z,102926.34
2019-05-12T05:42:33.415Z,102915.36
2019-05-12T05:45:23.676Z,102920.55
2019-05-12T05:48:09.944Z,102931.98
2019-05-12T05:50:59.934Z,102934.70
2019-05-12T05:53:44.300Z,102934.63
2019-05-12T05:56:39.841Z,102949.52
2019-05-12T05:59:21.920Z,102943.75
2019-05-12T06:02:07.729Z,102941.20
2019-05-12T06:04:56.474Z,102949.08
2019-05-12T06:07:44.288Z,102951.25
2019-05-12T06:10:36.217Z,102953.66
2019-05-12T06:13:21.094Z,102956.19
2019-05-12T06:16:05.915Z,102973.00
2019-05-12T06:18:54.409Z,102967.85
2019-05-12T06:21:41.198Z,102963.13
2019-05-12T06:24:29.628Z,102971.58
2019-05-12T06:27:20.998Z,102971.98
2019-05-12T06:30:06.542Z,102972.98
2019-05-12T06:32:54.617Z,102974.75
2019-05-12T06:35:44.630Z,102973.95
2019-05-12T06:38:31.028Z,102973.59
2019-05-12T06:41:20.806Z,102971.38
2019-05-12T06:44:08.829Z,102978.07
2019-05-12T06:47:02.260Z,102984.26
2019-05-12T06:49:41.030Z,102987.40
2019-05-12T06:52:30.577Z,102971.05
2019-05-12T06:55:18.111Z,102986.98
2019-05-12T06:58:05.838Z,102988.81
2019-05-12T07:00:54.052Z,102993.69
2019-05-12T07:03:40.913Z,103002.06
2019-05-12T07:06:28.507Z,102996.34
2019-05-12T07:09:26.676Z,103005.19
2019-05-12T07:12:07.116Z,103010.45
2019-05-12T07:14:57.077Z,103016.64
2019-05-12T07:17:49.394Z,103012.67
2019-05-12T07:20:57.771Z,103012.67
2019-05-12T07:23:45.537Z,103024.56
2019-05-12T07:26:33.874Z,103030.30
2019-05-12T07:29:23.725Z,102984.83
2019-05-12T07:32:16.254Z,103021.86
2019-05-12T07:34:57.300Z,103022.71
2019-05-12T07:37:45.523Z,103023.52
2019-05-12T07:40:36.725Z,103028.85
2019-05-12T07:43:21.567Z,103031.44
2019-05-12T07:46:09.762Z,103031.44
2019-05-12T07:48:57.693Z,103034.02
2019-05-12T07:51:45.503Z,103029.19
2019-05-12T07:54:37.795Z,103029.19
2019-05-12T07:57:24.076Z,103028.67
2019-05-12T08:00:11.413Z,103023.55
2019-05-12T08:02:57.546Z,103023.55
2019-05-12T08:05:45.313Z,103033.80
2019-05-12T08:08:33.959Z,103032.56
2019-05-12T08:11:23.247Z,103057.52
2019-05-12T08:14:13.776Z,103043.23
2019-05-12T08:17:01.981Z,103037.57
2019-05-12T08:19:44.396Z,103040.72
2019-05-12T08:22:31.835Z,103042.13
2019-05-12T08:25:27.051Z,103038.92
2019-05-12T08:28:15.433Z,102887.39
2019-05-12T08:30:55.518Z,103046.30
2019-05-12T08:33:43.778Z,103040.06
2019-05-12T08:36:33.314Z,103044.38
2019-05-12T08:39:22.870Z,103056.64
2019-05-12T08:42:07.497Z,103049.23
2019-05-12T08:44:55.104Z,103056.77
2019-05-12T08:47:44.193Z,103053.04
2019-05-12T08:50:33.099Z,103048.10
2019-05-12T08:53:20.877Z,103046.87
2019-05-12T08:56:12.866Z,103051.40
2019-05-12T08:58:54.908Z,103045.67
2019-05-12T09:01:43.808Z,103048.66
2019-05-12T09:04:30.589Z,103054.89
2019-05-12T09:07:18.311Z,103059.47
2019-05-12T09:10:07.053Z,103062.81
2019-05-12T09:12:54.529Z,103058.23
2019-05-12T09:15:43.783Z,103075.90
2019-05-12T09:18:35.259Z,103084.09
2019-05-12T09:21:17.595Z,103077.86
2019-05-12T09:24:05.713Z,103066.87
2019-05-12T09:26:53.909Z,103071.02
2019-05-12T09:29:43.458Z,103075.68
2019-05-12T09:32:29.854Z,103072.53
2019-05-12T09:35:17.561Z,103064.42
2019-05-12T09:38:06.267Z,103070.88
2019-05-12T09:41:00.832Z,103072.70
2019-05-12T09:43:48.327Z,103069.86
2019-05-12T09:46:34.323Z,103070.72
2019-05-12T09:49:16.649Z,103075.78
2019-05-12T09:52:04.879Z,103078.40
2019-05-12T09:54:53.551Z,103082.88
2019-05-12T09:57:42.168Z,103083.09
2019-05-12T10:00:30.377Z,103087.84
2019-05-12T10:03:16.931Z,103072.61
2019-05-12T10:06:04.755Z,103081.55
2019-05-12T10:08:54.933Z,103089.84
2019-05-12T10:11:40.566Z,103074.30
2019-05-12T10:14:28.625Z,103085.41
2019-05-12T10:17:20.223Z,103100.12
2019-05-12T10:20:04.181Z,103092.95
2019-05-12T10:22:54.146Z,103097.23
2019-05-12T10:25:39.736Z,103101.89
2019-05-12T10:28:28.011Z,103099.68
2019-05-12T10:31:18.645Z,103101.08
2019-05-12T10:34:23.900Z,103106.03
2019-05-12T10:37:10.404Z,103104.56
2019-05-12T10:39:58.071Z,103104.85
2019-05-12T10:42:49.344Z,103098.10
2019-05-12T10:45:33.509Z,103095.53
2019-05-12T10:48:23.305Z,103113.28
2019-05-12T10:51:12.321Z,103110.95
2019-05-12T10:54:07.498Z,103121.89
2019-05-12T10:56:46.313Z,103119.06
2019-05-12T10:59:38.759Z,103114.03
2019-05-12T11:02:26.423Z,103114.52
2019-05-12T11:05:12.468Z,103119.06
2019-05-12T11:08:00.176Z,103128.56
2019-05-12T11:10:50.272Z,103136.02
2019-05-12T11:13:40.205Z,103140.47
2019-05-12T11:16:30.728Z,103126.22
2019-05-12T11:19:10.976Z,103124.45
2019-05-12T11:21:58.629Z,103124.69
2019-05-12T11:24:52.756Z,103122.98
2019-05-12T11:27:37.647Z,103124.00
2019-05-12T11:30:25.447Z,103138.33
2019-05-12T11:33:13.093Z,103138.02
2019-05-12T11:36:00.617Z,103139.25
2019-05-12T11:38:48.230Z,103141.63
2019-05-12T11:41:35.865Z,103135.20
2019-05-12T11:44:24.002Z,103153.06
2019-05-12T11:47:14.754Z,103128.58
2019-05-12T11:50:05.191Z,103135.36
2019-05-12T11:52:51.045Z,103135.63
2019-05-12T11:55:36.421Z,103145.42
2019-05-12T11:58:24.026Z,103136.68
2019-05-12T12:01:13.458Z,103142.20
2019-05-12T12:03:59.254Z,103151.33
2019-05-12T12:06:46.963Z,103137.91
2019-05-12T12:09:35.279Z,103149.38
2019-05-12T12:12:24.229Z,103153.13
2019-05-12T12:15:13.669Z,103141.40
2019-05-12T12:18:15.445Z,103154.95
2019-05-12T12:21:07.675Z,103150.80
2019-05-12T12:23:57.526Z,103147.73
2019-05-12T12:26:54.057Z,103155.25
2019-05-12T12:29:43.869Z,103168.97
2019-05-12T12:32:39.459Z,102933.16
2019-05-12T12:35:31.239Z,103160.82
2019-05-12T12:38:34.702Z,103163.33
2019-05-12T12:41:20.284Z,103162.69
2019-05-12T12:44:08.125Z,103169.48
2019-05-12T12:47:00.422Z,103173.20
2019-05-12T12:49:47.602Z,103176.81
2019-05-12T12:52:33.581Z,103174.27
2019-05-12T12:55:19.617Z,103171.81
2019-05-12T12:58:08.255Z,103172.19
2019-05-12T13:00:57.054Z,103170.82
2019-05-12T13:03:44.149Z,103173.33
2019-05-12T13:06:34.362Z,103180.36
2019-05-12T13:09:24.582Z,103188.84
2019-05-12T13:12:15.817Z,103184.48
2019-05-12T13:14:55.978Z,103182.06
2019-05-12T13:17:44.869Z,103176.72
2019-05-12T13:20:34.271Z,103167.61
2019-05-12T13:23:33.912Z,103178.76
2019-05-12T13:26:07.663Z,103190.28
2019-05-12T13:28:55.825Z,103193.84
2019-05-12T13:31:46.368Z,103193.17
2019-05-12T13:34:34.684Z,103183.94
2019-05-12T13:37:19.706Z,103186.67
2019-05-12T13:40:07.581Z,103193.13
2019-05-12T13:42:55.510Z,103195.09
2019-05-12T13:45:44.334Z,103201.83
2019-05-12T13:48:31.695Z,103209.32
2019-05-12T13:51:19.412Z,103218.00
2019-05-12T13:54:07.576Z,103219.09
2019-05-12T13:56:55.456Z,103222.41
2019-05-12T13:59:43.641Z,103226.32
2019-05-12T14:02:33.603Z,103222.25
2019-05-12T14:05:19.213Z,103225.79
2019-05-12T14:08:06.743Z,103223.67
2019-05-12T14:10:59.572Z,103233.95
2019-05-12T14:13:43.332Z,103228.70
2019-05-12T14:16:33.782Z,103229.17
2019-05-12T14:19:19.677Z,103237.91
2019-05-12T14:22:07.334Z,103226.87
2019-05-12T14:24:55.086Z,103224.03
2019-05-12T14:27:44.312Z,103222.83
2019-05-12T14:30:30.814Z,103231.50
2019-05-12T14:33:18.992Z,103232.06
2019-05-12T14:36:07.149Z,103223.96
2019-05-12T14:39:00.175Z,103238.85
2019-05-12T14:41:52.878Z,103237.30
2019-05-12T14:44:35.979Z,103231.86
2019-05-12T14:47:19.113Z,103217.81
2019-05-12T14:50:06.553Z,103235.89
2019-05-12T14:52:57.735Z,103236.36
2019-05-12T14:55:41.981Z,103229.05
2019-05-12T14:58:30.078Z,103223.55
2019-05-12T15:01:17.640Z,103241.06
2019-05-12T15:04:05.414Z,103230.08
2019-05-12T15:06:53.468Z,103231.98
2019-05-12T15:09:40.865Z,103238.83
2019-05-12T15:12:28.378Z,103245.23
2019-05-12T15:15:20.501Z,103240.59
2019-05-12T15:18:08.953Z,103234.66
2019-05-12T15:20:54.488Z,103250.27
2019-05-12T15:23:40.268Z,103250.18
2019-05-12T15:26:28.678Z,103259.97
2019-05-12T15:29:19.999Z,103264.52
2019-05-12T15:32:04.642Z,103257.51
2019-05-12T15:34:52.619Z,103268.47
2019-05-12T15:37:40.290Z,103266.13
2019-05-12T15:40:28.009Z,103284.47
2019-05-12T15:43:15.534Z,103273.21
2019-05-12T15:46:03.983Z,103271.83
2019-05-12T15:48:53.519Z,103276.97
2019-05-12T15:51:51.201Z,103270.18
2019-05-12T15:54:30.781Z,103279.03
2019-05-12T15:57:15.900Z,103294.08
2019-05-12T16:00:04.983Z,103280.37
2019-05-12T16:02:53.428Z,103279.37
2019-05-12T16:05:39.113Z,103284.52
2019-05-12T16:08:26.625Z,103287.98
2019-05-12T16:11:14.586Z,103290.23
2019-05-12T16:14:03.180Z,103308.30
2019-05-12T16:16:50.532Z,103300.22
2019-05-12T16:19:38.124Z,103299.59
2019-05-12T16:22:30.692Z,103292.01
2019-05-12T16:25:15.166Z,103295.98
2019-05-12T16:28:01.785Z,103298.20
2019-05-12T16:30:49.639Z,103294.25
2019-05-12T16:33:37.862Z,103298.48
2019-05-12T16:36:25.841Z,103309.95
2019-05-12T16:39:13.569Z,103313.70
2019-05-12T16:42:08.297Z,103316.86
2019-05-12T16:44:48.711Z,103313.98
2019-05-12T16:47:36.272Z,103307.42
2019-05-12T16:50:27.740Z,103323.61
2019-05-12T16:53:21.351Z,103316.73
2019-05-12T16:56:00.356Z,103322.20
2019-05-12T16:58:48.693Z,103321.84
2019-05-12T17:01:36.568Z,103329.45
2019-05-12T17:04:23.986Z,103326.89
2019-05-12T17:07:18.926Z,103329.20
2019-05-12T17:10:02.997Z,103326.91
2019-05-12T17:12:48.522Z,103337.28
2019-05-12T17:15:35.426Z,103343.83
2019-05-12T17:18:24.710Z,103342.75
2019-05-12T17:21:11.118Z,103350.91
2019-05-12T17:23:59.007Z,103353.20
2019-05-12T17:26:47.168Z,103362.64
2019-05-12T17:29:35.190Z,103369.90
2019-05-12T17:32:23.913Z,103365.19
2019-05-12T17:35:10.867Z,103375.98
2019-05-12T17:37:58.287Z,103370.97
2019-05-12T17:40:50.232Z,103367.14
2019-05-12T17:43:34.666Z,103379.56
2019-05-12T17:46:23.335Z,103387.98
2019-05-12T17:49:15.017Z,103394.22
2019-05-12T17:52:04.486Z,103389.58
2019-05-12T17:54:45.579Z,103390.98
2019-05-12T17:57:34.034Z,103395.25
2019-05-12T18:00:23.559Z,103401.70
2019-05-12T18:03:18.163Z,103403.17
2019-05-12T18:05:57.382Z,103402.52
2019-05-12T18:08:44.903Z,103401.00
2019-05-12T18:11:34.012Z,103414.84
2019-05-12T18:14:24.639Z,103416.63
2019-05-12T18:17:08.905Z,103412.84
2019-05-12T18:20:00.847Z,103423.36
2019-05-12T18:22:45.349Z,103422.80
2019-05-12T18:25:32.533Z,103418.54
2019-05-12T18:28:21.777Z,103431.96
2019-05-12T18:31:07.706Z,103438.45
2019-05-12T18:33:56.965Z,103438.45
2019-05-12T18:36:43.751Z,103447.42
2019-05-12T18:39:31.393Z,103447.42
2019-05-12T18:42:19.145Z,103458.55
2019-05-12T18:45:11.965Z,103458.55
2019-05-12T18:47:55.020Z,103459.03
2019-05-12T18:50:44.161Z,103465.72
2019-05-12T18:53:32.139Z,103474.17
2019-05-12T18:56:21.783Z,103474.17
2019-05-12T18:59:11.667Z,103468.00
2019-05-12T19:01:56.000Z,103468.00
2019-05-12T19:04:44.335Z,103495.43
2019-05-12T19:07:39.699Z,103495.43
2019-05-12T19:10:19.780Z,103494.55
2019-05-12T19:13:08.021Z,103494.55
2019-05-12T19:16:02.610Z,103500.28
2019-05-12T19:18:42.964Z,103500.24
2019-05-12T19:21:30.678Z,103508.19
2019-05-12T19:24:20.115Z,103519.64
2019-05-12T19:27:10.468Z,103520.94
2019-05-12T19:29:54.676Z,103525.33
2019-05-12T19:32:44.974Z,103530.18
2019-05-12T19:35:30.352Z,103535.44
2019-05-12T19:38:17.860Z,103536.75
2019-05-12T19:41:06.128Z,103549.05
2019-05-12T19:43:54.117Z,103548.60
2019-05-12T19:46:45.866Z,103547.24
2019-05-12T19:49:42.674Z,103551.66
2019-05-12T19:52:17.270Z,103552.97
2019-05-12T19:55:05.586Z,103548.92
2019-05-12T19:57:54.473Z,103561.20
2019-05-12T20:00:43.661Z,103561.16
2019-05-12T20:03:29.656Z,103563.34
2019-05-12T20:06:17.136Z,103594.66
2019-05-12T20:09:10.809Z,103576.92
2019-05-12T20:11:54.328Z,103576.43
2019-05-12T20:14:43.470Z,103575.08
2019-05-12T20:17:30.848Z,103579.83
2019-05-12T20:20:19.023Z,103583.73
2019-05-12T20:23:06.765Z,103584.11
2019-05-12T20:25:54.208Z,103584.11
2019-05-12T20:28:50.121Z,103595.05
2019-05-12T20:31:35.535Z,103587.05
2019-05-12T20:34:18.920Z,103603.69
2019-05-12T20:37:13.121Z,103593.94
2019-05-12T20:40:00.509Z,103589.52
2019-05-12T20:43:05.285Z,103596.08
2019-05-12T20:45:33.136Z,103598.19
2019-05-12T20:48:19.602Z,103598.19
2019-05-12T20:51:08.819Z,103606.97
2019-05-12T20:53:54.932Z,103608.15
2019-05-12T20:56:43.491Z,103608.15
2019-05-12T20:59:30.358Z,103618.63
2019-05-12T21:02:18.182Z,103621.19
2019-05-12T21:05:14.522Z,103619.40
2019-05-12T21:07:55.957Z,103641.31
2019-05-12T21:10:43.740Z,103626.22
2019-05-12T21:13:31.786Z,103628.75
2019-05-12T21:16:20.279Z,103628.75
2019-05-12T21:19:10.562Z,103640.07
2019-05-12T21:21:52.733Z,103634.67
2019-05-12T21:24:40.468Z,103634.67
2019-05-12T21:27:27.972Z,103652.27
2019-05-12T21:30:15.624Z,103651.31
2019-05-12T21:33:04.904Z,103650.38
2019-05-12T21:35:54.046Z,103653.37
2019-05-12T21:38:39.286Z,103656.75
2019-05-12T21:41:27.090Z,103656.75
2019-05-12T21:44:15.450Z,103661.59
2019-05-12T21:47:09.550Z,103662.73
2019-05-12T21:49:55.120Z,103674.13
2019-05-12T21:52:39.331Z,103671.89
2019-05-12T21:55:26.805Z,103666.95
2019-05-12T21:58:15.347Z,103669.49
2019-05-12T22:01:05.261Z,103675.70
2019-05-12T22:03:58.008Z,103683.38
2019-05-12T22:06:37.397Z,103689.86
2019-05-12T22:09:25.324Z,103687.94
2019-05-12T22:12:12.958Z,103690.20
2019-05-12T22:15:03.567Z,103693.12
2019-05-12T22:18:04.263Z,103698.67
2019-05-12T22:20:52.289Z,103700.77
2019-05-12T22:23:36.874Z,103694.94
2019-05-12T22:26:24.628Z,103697.83
2019-05-12T22:29:13.538Z,103702.06
2019-05-12T22:31:59.872Z,103698.92
2019-05-12T22:34:48.051Z,103704.07
2019-05-12T22:37:36.565Z,103705.78
2019-05-12T22:40:23.883Z,103713.56
2019-05-12T22:43:14.206Z,103716.59
2019-05-12T22:45:59.837Z,103709.93
2019-05-12T22:48:48.238Z,103714.58
2019-05-12T22:51:36.281Z,103717.14
2019-05-12T22:54:24.285Z,103719.28
2019-05-12T22:57:13.579Z,103719.23
2019-05-12T22:59:59.662Z,103721.48
2019-05-12T23:02:47.836Z,103720.11
2019-05-12T23:05:35.723Z,103723.48
2019-05-12T23:08:24.672Z,103722.48
2019-05-12T23:11:14.419Z,103729.01
2019-05-12T23:14:00.164Z,103728.08
2019-05-12T23:16:47.739Z,103732.46
2019-05-12T23:19:35.635Z,103730.14
2019-05-12T23:22:24.139Z,103731.00
2019-05-12T23:25:19.933Z,103735.89
2019-05-12T23:28:00.438Z,103724.85
2019-05-12T23:30:48.441Z,103732.70
2019-05-12T23:33:36.621Z,103727.36
2019-05-12T23:36:35.268Z,103730.38
2019-05-12T23:39:10.472Z,103733.12
2019-05-12T23:41:58.150Z,103728.69
2019-05-12T23:44:46.258Z,103729.48
2019-05-12T23:47:34.309Z,103733.31
2019-05-12T23:50:23.966Z,103731.54
2019-05-12T23:53:09.791Z,103728.75
2019-05-12T23:55:58.130Z,103731.76
2019-05-12T23:58:45.929Z,103728.53
